createdAt,value
2017-08-09T00:02:20.957Z,67.40
2017-08-09T00:04:48.507Z,67.60
2017-08-09T00:07:16.107Z,67.40
2017-08-09T00:09:43.695Z,67.20
2017-08-09T00:12:11.238Z,67.70
2017-08-09T00:14:39.150Z,67.60
2017-08-09T00:17:06.721Z,68.80
2017-08-09T00:19:34.267Z,68.50
2017-08-09T00:22:01.857Z,68.20
2017-08-09T00:24:29.413Z,68.60
2017-08-09T00:26:57.407Z,68.50
2017-08-09T00:29:24.966Z,69.00
2017-08-09T00:31:52.525Z,68.80
2017-08-09T00:34:20.149Z,67.60
2017-08-09T00:36:47.701Z,68.50
2017-08-09T00:39:15.731Z,68.40
2017-08-09T00:41:43.276Z,68.00
2017-08-09T00:44:10.832Z,68.30
2017-08-09T00:46:38.413Z,68.30
2017-08-09T00:49:05.991Z,69.10
2017-08-09T00:51:34.841Z,69.40
2017-08-09T00:54:02.388Z,69.20
2017-08-09T00:56:29.944Z,69.70
2017-08-09T00:58:57.835Z,69.60
2017-08-09T01:01:25.373Z,69.70
2017-08-09T01:03:53.300Z,69.60
2017-08-09T01:06:20.857Z,69.70
2017-08-09T01:08:49.167Z,71.00
2017-08-09T01:11:16.746Z,70.80
2017-08-09T01:13:44.511Z,70.80
2017-08-09T01:16:13.175Z,71.90
2017-08-09T01:18:40.716Z,71.80
2017-08-09T01:21:08.263Z,72.30
2017-08-09T01:23:36.620Z,72.30
2017-08-09T01:26:04.181Z,72.80
2017-08-09T01:28:32.221Z,70.80
2017-08-09T01:30:59.797Z,72.00
2017-08-09T01:33:27.362Z,70.80
2017-08-09T01:35:54.965Z,70.20
2017-08-09T01:38:22.524Z,70.90
2017-08-09T01:40:50.400Z,71.20
2017-08-09T01:43:17.952Z,70.00
2017-08-09T01:45:45.507Z,71.20
2017-08-09T01:48:13.109Z,71.40
2017-08-09T01:50:40.651Z,71.40
2017-08-09T01:53:08.519Z,71.40
2017-08-09T01:55:36.112Z,70.80
2017-08-09T01:58:03.687Z,70.30
2017-08-09T02:00:31.293Z,70.80
2017-08-09T02:02:58.866Z,71.30
2017-08-09T02:05:26.725Z,70.60
2017-08-09T02:07:54.297Z,70.60
2017-08-09T02:10:21.882Z,71.10
2017-08-09T02:12:49.519Z,71.40
2017-08-09T02:15:17.065Z,70.90
2017-08-09T02:17:44.945Z,71.20
2017-08-09T02:20:12.499Z,70.30
2017-08-09T02:22:40.051Z,70.50
2017-08-09T02:25:07.813Z,70.40
2017-08-09T02:27:35.374Z,70.50
2017-08-09T02:30:03.378Z,70.40
2017-08-09T02:32:30.945Z,70.40
2017-08-09T02:34:58.516Z,70.30
2017-08-09T02:37:26.879Z,70.80
2017-08-09T02:39:54.443Z,70.30
2017-08-09T02:42:22.413Z,70.00
2017-08-09T02:44:49.975Z,70.50
2017-08-09T02:47:17.533Z,70.60
2017-08-09T02:49:45.146Z,70.50
2017-08-09T02:52:12.718Z,70.80
2017-08-09T02:54:40.607Z,70.80
2017-08-09T02:57:08.158Z,70.80
2017-08-09T02:59:35.711Z,71.00
2017-08-09T03:02:03.303Z,70.90
2017-08-09T03:04:30.886Z,70.90
2017-08-09T03:06:58.939Z,70.90
2017-08-09T03:09:27.275Z,71.80
2017-08-09T03:11:54.847Z,71.10
2017-08-09T03:14:22.552Z,71.40
2017-08-09T03:16:50.884Z,71.30
2017-08-09T03:19:18.762Z,71.20
2017-08-09T03:21:46.298Z,71.30
2017-08-09T03:24:13.851Z,71.50
2017-08-09T03:26:41.439Z,71.40
2017-08-09T03:29:08.989Z,71.40
2017-08-09T03:31:36.855Z,71.40
2017-08-09T03:34:04.433Z,71.60
2017-08-09T03:36:32.141Z,71.20
2017-08-09T03:38:59.902Z,71.70
2017-08-09T03:41:27.600Z,71.60
2017-08-09T03:43:55.519Z,71.70
2017-08-09T03:46:23.094Z,71.80
2017-08-09T03:48:50.671Z,71.60
2017-08-09T03:51:18.328Z,71.40
2017-08-09T03:53:45.891Z,71.20
2017-08-09T03:56:13.793Z,70.40
2017-08-09T03:58:41.364Z,71.10
2017-08-09T04:01:08.931Z,71.40
2017-08-09T04:03:36.514Z,71.50
2017-08-09T04:06:04.088Z,71.60
2017-08-09T04:08:31.975Z,71.20
2017-08-09T04:10:59.562Z,71.60
2017-08-09T04:13:27.127Z,71.50
2017-08-09T04:15:54.745Z,71.50
2017-08-09T04:18:22.318Z,71.40
2017-08-09T04:20:50.417Z,71.30
2017-08-09T04:23:18.117Z,71.20
2017-08-09T04:25:45.673Z,71.10
2017-08-09T04:28:13.274Z,71.20
2017-08-09T04:30:40.867Z,71.40
2017-08-09T04:33:09.555Z,71.50
2017-08-09T04:35:37.862Z,72.00
2017-08-09T04:38:05.429Z,71.20
2017-08-09T04:40:33.037Z,71.20
2017-08-09T04:43:00.617Z,70.70
2017-08-09T04:45:29.292Z,71.30
2017-08-09T04:47:56.839Z,71.20
2017-08-09T04:50:24.420Z,71.10
2017-08-09T04:52:52.187Z,70.50
2017-08-09T04:55:19.757Z,70.40
2017-08-09T04:57:48.447Z,69.90
2017-08-09T05:00:16.765Z,69.20
2017-08-09T05:02:44.331Z,69.20
2017-08-09T05:05:11.926Z,69.90
2017-08-09T05:07:39.477Z,70.00
2017-08-09T05:10:07.539Z,69.10
2017-08-09T05:12:35.271Z,69.30
2017-08-09T05:15:02.813Z,69.30
2017-08-09T05:17:30.565Z,70.00
2017-08-09T05:19:58.127Z,69.50
2017-08-09T05:22:26.073Z,69.60
2017-08-09T05:24:54.419Z,68.40
2017-08-09T05:27:22.135Z,68.20
2017-08-09T05:29:49.730Z,67.70
2017-08-09T05:32:17.296Z,67.30
2017-08-09T05:34:45.160Z,67.00
2017-08-09T05:37:12.729Z,66.70
2017-08-09T05:39:40.277Z,67.20
2017-08-09T05:42:07.877Z,66.60
2017-08-09T05:44:35.442Z,66.90
2017-08-09T05:47:04.068Z,67.40
2017-08-09T05:49:31.807Z,67.30
2017-08-09T05:51:59.380Z,67.40
2017-08-09T05:54:27.008Z,67.40
2017-08-09T05:56:54.564Z,67.80
2017-08-09T05:59:22.636Z,67.90
2017-08-09T06:01:50.187Z,67.90
2017-08-09T06:04:17.771Z,68.00
2017-08-09T06:06:46.163Z,68.60
2017-08-09T06:09:13.717Z,68.50
2017-08-09T06:11:41.600Z,68.40
2017-08-09T06:14:09.146Z,68.30
2017-08-09T06:16:36.710Z,68.60
2017-08-09T06:19:04.332Z,68.10
2017-08-09T06:21:31.896Z,68.00
2017-08-09T06:23:59.767Z,68.00
2017-08-09T06:26:27.329Z,67.80
2017-08-09T06:28:55.840Z,68.30
2017-08-09T06:31:23.455Z,67.90
2017-08-09T06:33:51.037Z,67.90
2017-08-09T06:36:19.016Z,67.90
2017-08-09T06:38:47.339Z,67.80
2017-08-09T06:41:14.879Z,67.60
2017-08-09T06:43:42.499Z,67.60
2017-08-09T06:46:10.047Z,67.50
2017-08-09T06:48:37.895Z,67.00
2017-08-09T06:51:05.470Z,67.20
2017-08-09T06:53:33.045Z,67.40
2017-08-09T06:56:01.675Z,67.50
2017-08-09T06:58:29.234Z,67.40
2017-08-09T07:00:57.255Z,67.20
2017-08-09T07:03:25.581Z,66.00
2017-08-09T07:05:53.154Z,66.30
2017-08-09T07:08:20.761Z,66.50
2017-08-09T07:10:48.333Z,66.80
2017-08-09T07:13:16.980Z,66.70
2017-08-09T07:15:44.625Z,66.70
2017-08-09T07:18:12.187Z,66.30
2017-08-09T07:20:39.815Z,66.40
2017-08-09T07:23:07.376Z,66.10
2017-08-09T07:25:35.297Z,65.50
2017-08-09T07:28:02.874Z,65.40
2017-08-09T07:30:30.640Z,64.70
2017-08-09T07:32:59.054Z,64.00
2017-08-09T07:35:26.622Z,63.90
2017-08-09T07:37:54.632Z,63.90
2017-08-09T07:40:22.183Z,63.70
2017-08-09T07:42:49.739Z,63.20
2017-08-09T07:45:17.657Z,62.50
2017-08-09T07:47:45.205Z,62.60
2017-08-09T07:50:13.149Z,62.70
2017-08-09T07:52:41.476Z,61.90
2017-08-09T07:55:09.044Z,61.40
2017-08-09T07:57:36.782Z,60.90
2017-08-09T08:00:04.344Z,60.20
2017-08-09T08:02:32.264Z,60.00
2017-08-09T08:04:59.813Z,59.90
2017-08-09T08:07:27.371Z,60.80
2017-08-09T08:09:55.096Z,59.90
2017-08-09T08:12:22.657Z,60.20
2017-08-09T08:14:50.568Z,59.80
2017-08-09T08:17:18.117Z,59.80
2017-08-09T08:19:45.781Z,59.50
2017-08-09T08:22:13.391Z,59.20
2017-08-09T08:24:41.869Z,59.10
2017-08-09T08:27:10.534Z,58.60
2017-08-09T08:29:38.099Z,58.60
2017-08-09T08:32:05.684Z,58.80
2017-08-09T08:34:33.280Z,58.70
2017-08-09T08:37:00.849Z,58.30
2017-08-09T08:39:28.838Z,57.80
2017-08-09T08:41:56.406Z,57.90
2017-08-09T08:44:24.188Z,58.00
2017-08-09T08:46:52.563Z,56.90
2017-08-09T08:49:20.143Z,56.80
2017-08-09T08:51:48.069Z,56.70
2017-08-09T08:54:15.637Z,56.60
2017-08-09T08:56:43.232Z,56.00
2017-08-09T08:59:10.841Z,55.70
2017-08-09T09:01:38.417Z,55.60
2017-08-09T09:04:06.495Z,55.00
2017-08-09T09:06:34.873Z,54.50
2017-08-09T09:09:02.485Z,54.40
2017-08-09T09:11:30.202Z,54.30
2017-08-09T09:13:57.774Z,53.90
2017-08-09T09:16:26.650Z,52.00
2017-08-09T09:18:54.975Z,52.00
2017-08-09T09:21:22.526Z,51.90
2017-08-09T09:23:50.148Z,52.00
2017-08-09T09:26:17.863Z,51.60
2017-08-09T09:28:45.778Z,51.60
2017-08-09T09:31:14.127Z,51.80
2017-08-09T09:33:41.677Z,51.70
2017-08-09T09:36:09.271Z,51.80
2017-08-09T09:38:36.845Z,52.00
2017-08-09T09:41:04.923Z,50.90
2017-08-09T09:43:32.481Z,52.00
2017-08-09T09:46:00.226Z,51.50
2017-08-09T09:48:28.610Z,49.60
2017-08-09T09:50:56.172Z,49.60
2017-08-09T09:53:24.842Z,48.60
2017-08-09T09:55:52.392Z,48.50
2017-08-09T09:58:19.951Z,48.40
2017-08-09T10:00:47.558Z,48.10
2017-08-09T10:03:15.124Z,48.40
2017-08-09T10:05:43.156Z,49.60
2017-08-09T10:08:10.711Z,48.40
2017-08-09T10:10:38.282Z,47.60
2017-08-09T10:13:06.657Z,47.20
2017-08-09T10:15:34.231Z,47.20
2017-08-09T10:18:02.274Z,47.20
2017-08-09T10:20:29.835Z,47.90
2017-08-09T10:22:57.402Z,47.40
2017-08-09T10:25:24.996Z,45.80
2017-08-09T10:27:52.552Z,45.10
2017-08-09T10:30:20.625Z,46.20
2017-08-09T10:32:48.185Z,46.00
2017-08-09T10:35:15.746Z,45.80
2017-08-09T10:37:44.238Z,45.60
2017-08-09T10:40:11.793Z,45.30
2017-08-09T10:42:39.694Z,44.90
2017-08-09T10:45:07.249Z,45.00
2017-08-09T10:47:34.795Z,44.80
2017-08-09T10:50:02.429Z,44.80
2017-08-09T10:52:29.995Z,44.90
2017-08-09T10:54:58.015Z,44.90
2017-08-09T10:57:25.712Z,45.30
2017-08-09T10:59:54.032Z,47.10
2017-08-09T11:02:21.649Z,47.10
2017-08-09T11:04:49.967Z,47.60
2017-08-09T11:07:17.916Z,47.50
2017-08-09T11:09:45.479Z,47.20
2017-08-09T11:12:13.330Z,46.20
2017-08-09T11:14:40.978Z,45.80
2017-08-09T11:17:09.307Z,46.60
2017-08-09T11:19:37.302Z,45.80
2017-08-09T11:22:04.857Z,45.40
2017-08-09T11:24:32.404Z,44.80
2017-08-09T11:27:00.174Z,44.70
2017-08-09T11:29:27.746Z,45.10
2017-08-09T11:31:55.822Z,44.60
2017-08-09T11:34:23.382Z,44.90
2017-08-09T11:36:50.933Z,45.10
2017-08-09T11:39:18.547Z,45.30
2017-08-09T11:41:46.123Z,44.90
2017-08-09T11:44:14.296Z,44.50
2017-08-09T11:46:41.841Z,45.10
2017-08-09T11:49:09.421Z,44.90
2017-08-09T11:51:37.028Z,45.10
2017-08-09T11:54:04.583Z,44.70
2017-08-09T11:56:32.647Z,45.20
2017-08-09T11:59:00.214Z,45.30
2017-08-09T12:01:27.847Z,45.10
2017-08-09T12:03:55.446Z,44.80
2017-08-09T12:06:23.777Z,45.00
2017-08-09T12:08:51.760Z,45.00
2017-08-09T12:11:19.340Z,44.80
2017-08-09T12:13:46.925Z,45.10
2017-08-09T12:16:14.496Z,45.10
2017-08-09T12:18:42.092Z,44.90
2017-08-09T12:21:10.022Z,44.90
2017-08-09T12:23:37.619Z,44.50
2017-08-09T12:26:05.193Z,44.90
2017-08-09T12:28:32.792Z,45.00
2017-08-09T12:31:00.395Z,45.00
2017-08-09T12:33:28.383Z,44.70
2017-08-09T12:35:56.088Z,45.10
2017-08-09T12:38:23.640Z,45.00
2017-08-09T12:40:51.234Z,45.00
2017-08-09T12:43:18.806Z,46.10
2017-08-09T12:45:46.894Z,46.40
2017-08-09T12:48:14.463Z,45.80
2017-08-09T12:50:42.050Z,46.00
2017-08-09T12:53:10.480Z,45.60
2017-08-09T12:55:38.242Z,45.50
2017-08-09T12:58:06.247Z,45.60
2017-08-09T13:00:33.815Z,45.70
2017-08-09T13:03:01.372Z,45.80
2017-08-09T13:05:29.748Z,45.10
2017-08-09T13:07:57.310Z,45.10
2017-08-09T13:10:26.198Z,45.80
2017-08-09T13:12:54.576Z,44.60
2017-08-09T13:15:22.551Z,44.20
2017-08-09T13:17:51.000Z,41.00
2017-08-09T13:20:18.787Z,40.90
2017-08-09T13:22:46.781Z,39.80
2017-08-09T13:25:14.487Z,38.40
2017-08-09T13:27:42.049Z,38.50
2017-08-09T13:30:09.673Z,38.80
2017-08-09T13:32:37.255Z,37.70
2017-08-09T13:35:05.301Z,36.50
2017-08-09T13:37:32.960Z,35.10
2017-08-09T13:40:00.528Z,34.20
2017-08-09T13:42:28.160Z,33.20
2017-08-09T13:44:55.757Z,32.10
2017-08-09T13:47:23.952Z,30.40
2017-08-09T13:49:51.526Z,30.70
2017-08-09T13:52:19.100Z,29.90
2017-08-09T13:54:46.698Z,29.30
2017-08-09T13:57:14.266Z,28.20
2017-08-09T13:59:42.454Z,28.30
2017-08-09T14:02:10.209Z,27.50
2017-08-09T14:04:37.770Z,26.90
2017-08-09T14:07:05.356Z,25.80
2017-08-09T14:09:32.961Z,26.70
2017-08-09T14:12:01.607Z,26.40
2017-08-09T14:14:29.178Z,26.40
2017-08-09T14:16:56.722Z,25.90
2017-08-09T14:19:24.327Z,25.90
2017-08-09T14:21:51.894Z,26.50
2017-08-09T14:24:19.957Z,27.50
2017-08-09T14:26:48.271Z,25.50
2017-08-09T14:29:15.837Z,25.50
2017-08-09T14:31:43.525Z,26.00
2017-08-09T14:34:11.085Z,26.60
2017-08-09T14:36:39.064Z,27.70
2017-08-09T14:39:06.632Z,29.10
2017-08-09T14:41:34.983Z,29.90
2017-08-09T14:44:02.603Z,29.80
2017-08-09T14:46:30.158Z,30.90
2017-08-09T14:48:58.207Z,32.20
2017-08-09T14:51:26.528Z,34.20
2017-08-09T14:53:54.171Z,33.50
2017-08-09T14:56:21.773Z,34.30
2017-08-09T14:58:49.590Z,35.80
2017-08-09T15:01:17.535Z,37.10
2017-08-09T15:03:45.097Z,37.00
2017-08-09T15:06:12.707Z,37.90
2017-08-09T15:08:40.306Z,38.50
2017-08-09T15:11:07.878Z,39.40
2017-08-09T15:13:35.751Z,39.60
2017-08-09T15:16:03.308Z,39.60
2017-08-09T15:18:31.640Z,39.60
2017-08-09T15:20:59.242Z,39.60
2017-08-09T15:23:26.976Z,39.60
2017-08-09T15:25:54.840Z,39.40
2017-08-09T15:28:22.417Z,39.30
2017-08-09T15:30:49.984Z,39.60
2017-08-09T15:33:17.597Z,39.60
2017-08-09T15:35:45.146Z,39.90
2017-08-09T15:38:13.000Z,38.60
2017-08-09T15:40:40.599Z,38.50
2017-08-09T15:43:08.185Z,36.90
2017-08-09T15:45:35.796Z,36.20
2017-08-09T15:48:03.348Z,37.00
2017-08-09T15:50:31.214Z,37.70
2017-08-09T15:52:58.776Z,38.00
2017-08-09T15:55:26.353Z,35.60
2017-08-09T15:57:53.984Z,35.20
2017-08-09T16:00:22.313Z,34.80
2017-08-09T16:02:50.239Z,34.80
2017-08-09T16:05:17.780Z,33.80
2017-08-09T16:07:46.136Z,29.90
2017-08-09T16:10:13.733Z,29.90
2017-08-09T16:12:41.291Z,27.40
2017-08-09T16:15:09.262Z,27.10
2017-08-09T16:17:36.827Z,26.10
2017-08-09T16:20:04.377Z,25.00
2017-08-09T16:22:32.734Z,25.00
2017-08-09T16:25:00.511Z,25.00
2017-08-09T16:27:29.367Z,28.10
2017-08-09T16:29:56.945Z,28.20
2017-08-09T16:32:24.505Z,28.90
2017-08-09T16:34:52.324Z,30.00
2017-08-09T16:37:19.918Z,31.30
2017-08-09T16:39:47.930Z,32.40
2017-08-09T16:42:15.504Z,33.70
2017-08-09T16:44:43.095Z,34.40
2017-08-09T16:47:10.707Z,35.20
2017-08-09T16:49:39.062Z,36.50
2017-08-09T16:52:07.032Z,36.40
2017-08-09T16:54:34.688Z,37.10
2017-08-09T16:57:02.256Z,37.60
2017-08-09T16:59:29.874Z,39.30
2017-08-09T17:01:57.490Z,39.30
2017-08-09T17:04:26.158Z,39.00
2017-08-09T17:06:53.742Z,39.00
2017-08-09T17:09:21.330Z,39.90
2017-08-09T17:11:48.934Z,40.70
2017-08-09T17:14:17.298Z,42.20
2017-08-09T17:16:45.283Z,41.80
2017-08-09T17:19:12.867Z,42.10
2017-08-09T17:21:40.462Z,42.50
2017-08-09T17:24:08.067Z,42.80
2017-08-09T17:26:35.613Z,43.10
2017-08-09T17:29:03.583Z,43.70
2017-08-09T17:31:31.144Z,44.00
2017-08-09T17:33:58.708Z,44.10
2017-08-09T17:36:26.335Z,43.80
2017-08-09T17:38:53.905Z,44.90
2017-08-09T17:41:21.895Z,44.90
2017-08-09T17:43:49.492Z,45.00
2017-08-09T17:46:17.073Z,45.00
2017-08-09T17:48:44.678Z,45.50
2017-08-09T17:51:12.278Z,45.70
2017-08-09T17:53:40.240Z,46.00
2017-08-09T17:56:07.833Z,46.20
2017-08-09T17:58:35.558Z,46.40
2017-08-09T18:01:03.945Z,46.70
2017-08-09T18:03:31.508Z,46.70
2017-08-09T18:05:59.409Z,47.10
2017-08-09T18:08:27.043Z,47.40
2017-08-09T18:10:54.623Z,47.60
2017-08-09T18:13:22.233Z,48.00
2017-08-09T18:15:49.828Z,48.30
2017-08-09T18:18:17.699Z,48.80
2017-08-09T18:20:45.283Z,49.30
2017-08-09T18:23:12.886Z,49.80
2017-08-09T18:25:40.512Z,50.50
2017-08-09T18:28:08.080Z,50.70
2017-08-09T18:30:35.999Z,51.10
2017-08-09T18:33:03.581Z,51.00
2017-08-09T18:35:31.160Z,50.90
2017-08-09T18:37:58.796Z,50.90
2017-08-09T18:40:26.380Z,50.80
2017-08-09T18:42:54.251Z,51.30
2017-08-09T18:45:21.891Z,51.40
2017-08-09T18:47:49.485Z,52.10
2017-08-09T18:50:17.319Z,52.20
2017-08-09T18:52:44.942Z,52.60
2017-08-09T18:55:12.979Z,53.30
2017-08-09T18:57:40.573Z,52.90
2017-08-09T19:00:08.372Z,53.00
2017-08-09T19:02:36.002Z,53.40
2017-08-09T19:05:03.589Z,53.70
2017-08-09T19:07:31.582Z,53.90
2017-08-09T19:09:59.187Z,54.10
2017-08-09T19:12:26.810Z,54.10
2017-08-09T19:14:54.434Z,55.40
2017-08-09T19:17:22.021Z,54.30
2017-08-09T19:19:50.036Z,54.30
2017-08-09T19:22:18.384Z,54.70
2017-08-09T19:24:45.953Z,54.60
2017-08-09T19:27:13.567Z,54.80
2017-08-09T19:29:41.434Z,54.80
2017-08-09T19:32:09.385Z,54.70
2017-08-09T19:34:37.160Z,55.20
2017-08-09T19:37:04.732Z,54.40
2017-08-09T19:39:32.391Z,55.00
2017-08-09T19:41:59.974Z,54.90
2017-08-09T19:44:28.069Z,55.60
2017-08-09T19:46:55.647Z,55.70
2017-08-09T19:51:57.984Z,56.10
2017-08-09T19:54:25.574Z,56.10
2017-08-09T19:56:53.541Z,56.20
2017-08-09T19:59:21.129Z,56.50
2017-08-09T20:01:48.724Z,56.60
2017-08-09T20:04:16.366Z,56.50
2017-08-09T20:06:44.012Z,56.90
2017-08-09T20:09:12.939Z,56.90
2017-08-09T20:11:40.522Z,56.90
2017-08-09T20:14:08.084Z,56.90
2017-08-09T20:16:35.706Z,57.30
2017-08-09T20:19:03.283Z,57.50
2017-08-09T20:21:31.269Z,57.90
2017-08-09T20:23:58.845Z,58.20
2017-08-09T20:26:27.225Z,58.40
2017-08-09T20:28:54.893Z,58.60
2017-08-09T20:31:22.479Z,58.50
2017-08-09T20:33:51.148Z,58.90
2017-08-09T20:36:19.494Z,59.20
2017-08-09T20:38:47.069Z,59.10
2017-08-09T20:41:14.693Z,59.10
2017-08-09T20:43:42.323Z,58.50
2017-08-09T20:46:10.330Z,58.50
2017-08-09T20:48:37.935Z,58.30
2017-08-09T20:51:05.507Z,59.10
2017-08-09T20:53:33.103Z,58.60
2017-08-09T20:56:00.671Z,59.00
2017-08-09T20:58:30.147Z,58.90
2017-08-09T21:00:57.734Z,58.70
2017-08-09T21:03:25.289Z,58.40
2017-08-09T21:05:52.903Z,59.00
2017-08-09T21:08:20.858Z,59.10
2017-08-09T21:10:49.566Z,58.60
2017-08-09T21:13:17.916Z,58.80
2017-08-09T21:15:45.831Z,58.60
2017-08-09T21:18:13.667Z,58.90
2017-08-09T21:20:41.976Z,59.00
2017-08-09T21:23:09.914Z,58.50
2017-08-09T21:25:37.536Z,59.00
2017-08-09T21:28:08.380Z,59.20
2017-08-09T21:30:36.351Z,59.40
2017-08-09T21:33:04.020Z,59.80
2017-08-09T21:35:32.155Z,60.20
2017-08-09T21:37:59.727Z,60.40
2017-08-09T21:40:27.375Z,60.20
2017-08-09T21:42:55.220Z,59.70
2017-08-09T21:45:22.816Z,60.00
2017-08-09T21:47:50.887Z,60.20
2017-08-09T21:50:18.464Z,60.40
2017-08-09T21:52:46.041Z,60.40
2017-08-09T21:55:13.668Z,60.60
2017-08-09T21:57:41.236Z,60.60
2017-08-09T22:00:09.580Z,60.90
2017-08-09T22:02:37.192Z,60.90
2017-08-09T22:05:05.674Z,61.40
2017-08-09T22:07:33.303Z,61.40
2017-08-09T22:10:00.943Z,61.10
2017-08-09T22:12:28.863Z,60.90
2017-08-09T22:14:57.152Z,61.00
2017-08-09T22:17:25.016Z,61.20
2017-08-09T22:19:52.653Z,61.10
2017-08-09T22:22:20.219Z,60.70
2017-08-09T22:24:48.158Z,61.40
2017-08-09T22:27:17.700Z,61.70
2017-08-09T22:29:46.084Z,62.00
2017-08-09T22:32:13.793Z,61.70
2017-08-09T22:34:41.371Z,61.70
2017-08-09T22:37:09.371Z,61.10
2017-08-09T22:39:36.932Z,61.00
2017-08-09T22:42:04.498Z,61.60
2017-08-09T22:44:32.150Z,64.00
2017-08-09T22:46:59.827Z,64.00
2017-08-09T22:49:27.981Z,63.20
2017-08-09T22:51:56.099Z,62.40
2017-08-09T22:54:23.808Z,62.60
2017-08-09T22:56:51.498Z,61.30
2017-08-09T22:59:19.984Z,61.80
2017-08-09T23:01:47.984Z,61.70
2017-08-09T23:04:15.533Z,62.60
2017-08-09T23:06:43.083Z,62.90
2017-08-09T23:09:10.689Z,63.40
2017-08-09T23:11:38.291Z,63.90
2017-08-09T23:14:06.308Z,64.60
2017-08-09T23:16:33.863Z,67.10
2017-08-09T23:19:01.420Z,68.00
2017-08-09T23:21:29.015Z,70.30
2017-08-09T23:23:56.599Z,70.50
2017-08-09T23:26:24.623Z,73.30
2017-08-09T23:28:52.177Z,74.40
2017-08-09T23:31:19.721Z,75.50
2017-08-09T23:33:47.304Z,74.50
2017-08-09T23:36:15.062Z,76.10
2017-08-09T23:38:43.749Z,78.40
2017-08-09T23:41:11.326Z,74.80
2017-08-09T23:43:38.894Z,74.70
2017-08-09T23:46:07.269Z,80.10
2017-08-09T23:48:34.839Z,80.10
2017-08-09T23:51:03.487Z,82.00
2017-08-09T23:53:31.036Z,82.00
2017-08-09T23:55:58.605Z,81.40
2017-08-09T23:58:26.465Z,80.30
